createdAt,value
2022-08-28T00:00:25.819Z,9.00
2022-08-28T00:02:53.690Z,6.90
2022-08-28T00:05:21.787Z,6.05
2022-08-28T00:07:48.909Z,7.38
2022-08-28T00:10:16.946Z,6.68
2022-08-28T00:12:45.087Z,7.88
2022-08-28T00:15:14.237Z,7.82
2022-08-28T00:17:42.102Z,6.10
2022-08-28T00:20:10.426Z,9.27
2022-08-28T00:22:38.435Z,7.63
2022-08-28T00:25:09.667Z,5.60
2022-08-28T00:27:55.819Z,5.93
2022-08-28T00:30:34.086Z,7.45
2022-08-28T00:33:03.016Z,9.27
2022-08-28T00:35:30.271Z,5.55
2022-08-28T00:37:57.537Z,5.95
2022-08-28T00:40:30.487Z,7.88
2022-08-28T00:43:00.928Z,9.18
2022-08-28T00:45:28.499Z,6.13
2022-08-28T00:47:55.632Z,6.47
2022-08-28T00:50:23.974Z,6.43
2022-08-28T00:52:53.938Z,6.07
2022-08-28T00:55:23.627Z,6.30
2022-08-28T00:57:53.179Z,7.72
2022-08-28T01:00:25.163Z,7.47
2022-08-28T01:02:53.194Z,8.13
2022-08-28T01:05:21.158Z,5.35
2022-08-28T01:07:48.506Z,10.85
2022-08-28T01:10:18.453Z,6.60
2022-08-28T01:12:46.104Z,6.43
2022-08-28T01:15:14.834Z,7.40
2022-08-28T01:20:13.911Z,7.85
2022-08-28T01:22:49.092Z,6.43
2022-08-28T01:25:19.174Z,6.47
2022-08-28T01:27:46.457Z,8.55
2022-08-28T01:30:15.817Z,8.85
2022-08-28T01:32:44.287Z,8.57
2022-08-28T01:35:16.223Z,6.68
2022-08-28T01:37:45.996Z,5.65
2022-08-28T01:40:14.589Z,8.35
2022-08-28T01:42:42.603Z,8.43
2022-08-28T01:45:11.317Z,8.30
2022-08-28T01:50:07.459Z,6.38
2022-08-28T01:52:36.371Z,6.32
2022-08-28T01:55:07.700Z,9.02
2022-08-28T01:57:35.379Z,6.80
2022-08-28T02:00:02.604Z,15.27
2022-08-28T02:02:30.359Z,9.35
2022-08-28T02:04:58.276Z,6.25
2022-08-28T02:07:25.526Z,9.40
2022-08-28T02:09:52.685Z,6.40
2022-08-28T02:12:20.652Z,7.35
2022-08-28T02:14:47.780Z,8.52
2022-08-28T02:17:14.899Z,5.35
2022-08-28T02:19:42.080Z,8.00
2022-08-28T02:22:09.483Z,6.30
2022-08-28T02:24:36.700Z,6.72
2022-08-28T02:27:04.442Z,4.95
2022-08-28T02:29:31.583Z,9.20
2022-08-28T02:31:59.111Z,13.70
2022-08-28T02:34:26.231Z,7.40
2022-08-28T02:36:53.463Z,7.43
2022-08-28T02:39:20.629Z,7.78
2022-08-28T02:41:47.786Z,9.27
2022-08-28T02:44:14.882Z,11.50
2022-08-28T02:46:42.044Z,12.90
2022-08-28T02:49:09.203Z,6.40
2022-08-28T02:51:36.389Z,7.05
2022-08-28T02:54:04.015Z,10.70
2022-08-28T02:56:31.242Z,6.93
2022-08-28T02:58:58.414Z,6.35
2022-08-28T03:01:25.662Z,6.75
2022-08-28T03:03:52.806Z,6.45
2022-08-28T03:06:20.011Z,11.02
2022-08-28T03:08:47.199Z,6.28
2022-08-28T03:11:14.342Z,4.93
2022-08-28T03:13:42.901Z,10.07
2022-08-28T03:16:10.071Z,7.57
2022-08-28T03:18:37.506Z,8.73
2022-08-28T03:21:04.674Z,6.30
2022-08-28T03:23:32.010Z,8.98
2022-08-28T03:26:05.157Z,6.47
2022-08-28T03:28:52.093Z,5.03
2022-08-28T03:31:21.268Z,9.57
2022-08-28T03:33:48.619Z,6.60
2022-08-28T03:36:17.848Z,7.90
2022-08-28T03:38:44.970Z,6.32
2022-08-28T03:41:13.170Z,5.97
2022-08-28T03:43:40.321Z,4.10
2022-08-28T03:46:08.126Z,6.97
2022-08-28T03:48:36.719Z,5.35
2022-08-28T03:51:11.262Z,8.38
2022-08-28T03:53:39.879Z,6.97
2022-08-28T03:56:08.311Z,7.82
2022-08-28T03:58:35.571Z,8.77
2022-08-28T04:01:02.724Z,9.68
2022-08-28T04:03:30.021Z,6.78
2022-08-28T04:05:57.399Z,10.05
2022-08-28T04:08:24.676Z,6.75
2022-08-28T04:10:52.290Z,6.70
2022-08-28T04:13:20.291Z,8.88
2022-08-28T04:15:47.896Z,6.85
2022-08-28T04:18:15.765Z,8.13
2022-08-28T04:20:46.553Z,5.78
2022-08-28T04:23:15.091Z,6.25
2022-08-28T04:25:42.239Z,9.10
2022-08-28T04:28:09.526Z,8.63
2022-08-28T04:30:36.681Z,5.50
2022-08-28T04:33:03.839Z,6.18
2022-08-28T04:35:30.982Z,6.10
2022-08-28T04:37:59.108Z,6.28
2022-08-28T04:40:26.415Z,5.72
2022-08-28T04:42:53.615Z,6.93
2022-08-28T04:45:21.968Z,6.47
2022-08-28T04:47:49.364Z,6.78
2022-08-28T04:50:16.582Z,7.05
2022-08-28T04:52:43.927Z,7.93
2022-08-28T04:55:11.163Z,5.07
2022-08-28T04:57:38.303Z,4.95
2022-08-28T05:00:06.665Z,5.13
2022-08-28T05:02:33.815Z,6.35
2022-08-28T05:05:00.965Z,6.07
2022-08-28T05:07:28.468Z,5.65
2022-08-28T05:09:55.589Z,4.38
2022-08-28T05:12:22.719Z,5.47
2022-08-28T05:14:50.833Z,4.63
2022-08-28T05:17:17.989Z,17.20
2022-08-28T05:19:45.155Z,19.10
2022-08-28T05:22:12.341Z,12.45
2022-08-28T05:24:40.185Z,12.63
2022-08-28T05:27:08.712Z,7.70
2022-08-28T05:29:35.967Z,6.28
2022-08-28T05:32:03.328Z,9.35
2022-08-28T05:34:31.684Z,8.23
2022-08-28T05:36:58.793Z,5.85
2022-08-28T05:39:26.018Z,8.13
2022-08-28T05:41:53.158Z,11.50
2022-08-28T05:44:20.971Z,6.55
2022-08-28T05:46:48.732Z,7.20
2022-08-28T05:49:17.867Z,6.15
2022-08-28T05:51:45.333Z,6.55
2022-08-28T05:54:12.625Z,4.32
2022-08-28T05:56:40.704Z,5.88
2022-08-28T05:59:08.591Z,7.82
2022-08-28T06:01:38.042Z,4.32
2022-08-28T06:04:08.350Z,6.25
2022-08-28T06:06:37.057Z,8.70
2022-08-28T06:09:06.259Z,5.28
2022-08-28T06:11:33.930Z,5.60
2022-08-28T06:14:03.204Z,7.90
2022-08-28T06:16:31.847Z,6.38
2022-08-28T06:21:26.216Z,4.55
2022-08-28T06:23:53.346Z,6.00
2022-08-28T06:26:20.614Z,6.53
2022-08-28T06:28:47.871Z,6.05
2022-08-28T06:31:23.757Z,6.90
2022-08-28T06:33:54.185Z,6.57
2022-08-28T06:36:21.808Z,6.63
2022-08-28T06:38:48.962Z,5.40
2022-08-28T06:41:16.255Z,5.15
2022-08-28T06:43:43.533Z,6.85
2022-08-28T06:46:10.866Z,7.00
2022-08-28T06:48:38.216Z,6.60
2022-08-28T06:51:09.568Z,7.65
2022-08-28T06:53:37.545Z,8.50
2022-08-28T06:56:08.386Z,7.82
2022-08-28T06:58:37.323Z,7.35
2022-08-28T07:01:10.538Z,8.05
2022-08-28T07:06:10.782Z,6.65
2022-08-28T07:08:38.781Z,8.43
2022-08-28T07:11:14.884Z,5.70
2022-08-28T07:13:45.622Z,6.85
2022-08-28T07:16:13.595Z,7.80
2022-08-28T07:18:41.069Z,7.57
2022-08-28T07:21:12.618Z,8.80
2022-08-28T07:23:40.745Z,7.55
2022-08-28T07:26:09.684Z,7.55
2022-08-28T07:28:37.685Z,12.25
2022-08-28T07:31:09.856Z,8.82
2022-08-28T07:33:39.539Z,5.82
2022-08-28T07:36:08.188Z,4.75
2022-08-28T07:38:42.993Z,9.18
2022-08-28T07:41:15.955Z,11.68
2022-08-28T07:44:01.875Z,9.30
2022-08-28T07:46:29.387Z,13.48
2022-08-28T07:48:58.737Z,7.22
2022-08-28T07:51:27.343Z,8.88
2022-08-28T07:53:56.757Z,10.05
2022-08-28T07:56:24.678Z,10.25
2022-08-28T07:58:51.840Z,13.45
2022-08-28T08:01:19.686Z,10.45
2022-08-28T08:03:47.309Z,11.30
2022-08-28T08:06:16.266Z,9.38
2022-08-28T08:08:45.399Z,9.20
2022-08-28T08:11:18.507Z,6.80
2022-08-28T08:13:47.703Z,10.65
2022-08-28T08:16:20.243Z,10.70
2022-08-28T08:18:48.767Z,9.32
2022-08-28T08:21:17.702Z,13.98
2022-08-28T08:23:45.269Z,8.40
2022-08-28T08:26:13.739Z,8.82
2022-08-28T08:28:41.654Z,5.72
2022-08-28T08:31:10.891Z,13.32
2022-08-28T08:33:39.624Z,5.75
2022-08-28T08:38:35.375Z,7.88
2022-08-28T08:41:05.389Z,7.80
2022-08-28T08:43:34.840Z,11.90
2022-08-28T08:46:02.588Z,5.07
2022-08-28T08:48:31.636Z,8.25
2022-08-28T08:51:02.707Z,7.32
2022-08-28T08:53:39.367Z,7.30
2022-08-28T08:56:06.696Z,5.78
2022-08-28T08:58:36.788Z,6.28
2022-08-28T09:01:22.856Z,7.63
2022-08-28T09:03:50.105Z,7.65
2022-08-28T09:06:35.264Z,7.97
2022-08-28T09:09:03.714Z,7.68
2022-08-28T09:11:42.962Z,7.13
2022-08-28T09:14:29.730Z,5.43
2022-08-28T09:16:57.050Z,6.03
2022-08-28T09:19:24.265Z,10.88
2022-08-28T09:21:52.636Z,5.57
2022-08-28T09:24:22.935Z,6.50
2022-08-28T09:26:55.655Z,5.85
2022-08-28T09:29:47.053Z,5.40
2022-08-28T09:32:32.740Z,5.30
2022-08-28T09:35:01.944Z,4.97
2022-08-28T09:37:32.528Z,3.33
2022-08-28T09:40:18.764Z,7.20
2022-08-28T09:43:16.360Z,6.97
2022-08-28T09:45:43.727Z,6.30
2022-08-28T09:48:21.712Z,6.88
2022-08-28T09:51:05.491Z,7.15
2022-08-28T09:53:36.031Z,4.75
2022-08-28T09:56:10.964Z,4.53
2022-08-28T09:58:49.832Z,9.32
2022-08-28T10:01:27.185Z,6.32
2022-08-28T10:04:01.083Z,4.95
2022-08-28T10:06:33.961Z,6.70
2022-08-28T10:09:05.775Z,6.40
2022-08-28T10:11:38.422Z,7.13
2022-08-28T10:14:05.510Z,12.93
2022-08-28T10:16:52.908Z,26.17
2022-08-28T10:19:32.461Z,8.45
2022-08-28T10:21:59.741Z,20.52
2022-08-28T10:24:31.230Z,21.23
2022-08-28T10:26:58.341Z,6.07
2022-08-28T10:29:45.254Z,9.05
2022-08-28T10:32:15.148Z,8.82
2022-08-28T10:35:06.298Z,6.07
2022-08-28T10:37:45.692Z,4.60
2022-08-28T10:40:22.813Z,4.78
2022-08-28T10:43:16.359Z,8.60
2022-08-28T10:45:43.747Z,6.60
2022-08-28T10:48:17.471Z,4.18
2022-08-28T10:50:47.140Z,3.83
2022-08-28T10:53:20.272Z,5.30
2022-08-28T10:55:58.232Z,4.10
2022-08-28T10:58:26.480Z,4.38
2022-08-28T11:00:59.938Z,5.13
2022-08-28T11:03:35.796Z,4.72
2022-08-28T11:06:11.563Z,4.93
2022-08-28T11:08:39.821Z,4.70
2022-08-28T11:11:12.858Z,4.38
2022-08-28T11:13:49.120Z,4.07
2022-08-28T11:16:21.059Z,7.50
2022-08-28T11:18:54.326Z,3.70
2022-08-28T11:21:25.024Z,4.35
2022-08-28T11:23:59.009Z,6.75
2022-08-28T11:26:52.417Z,9.13
2022-08-28T11:29:38.258Z,5.68
2022-08-28T11:32:43.551Z,3.50
2022-08-28T11:35:32.831Z,3.00
2022-08-28T11:38:00.399Z,7.13
2022-08-28T11:40:33.531Z,6.32
2022-08-28T11:43:16.130Z,4.45
2022-08-28T11:45:46.811Z,5.55
2022-08-28T11:48:23.702Z,3.95
2022-08-28T11:50:55.163Z,4.50
2022-08-28T11:53:40.423Z,3.60
2022-08-28T11:56:29.102Z,3.38
2022-08-28T11:59:18.028Z,4.00
2022-08-28T12:01:45.239Z,4.35
2022-08-28T12:04:17.587Z,3.35
2022-08-28T12:06:47.460Z,3.85
2022-08-28T12:09:26.824Z,3.67
2022-08-28T12:11:55.619Z,4.63
2022-08-28T12:14:25.917Z,3.55
2022-08-28T12:17:02.435Z,3.83
2022-08-28T12:19:55.558Z,4.35
2022-08-28T12:22:40.136Z,5.13
2022-08-28T12:25:07.903Z,2.95
2022-08-28T12:27:38.464Z,6.05
2022-08-28T12:30:06.037Z,4.30
2022-08-28T12:32:42.893Z,5.00
2022-08-28T12:35:30.311Z,3.45
2022-08-28T12:37:57.463Z,5.63
2022-08-28T12:40:26.651Z,3.40
2022-08-28T12:42:59.062Z,3.80
2022-08-28T12:45:29.268Z,6.07
2022-08-28T12:48:00.166Z,3.72
2022-08-28T12:50:32.883Z,3.67
2022-08-28T12:53:01.515Z,4.30
2022-08-28T12:55:28.695Z,5.80
2022-08-28T12:57:56.158Z,2.90
2022-08-28T13:00:25.091Z,3.35
2022-08-28T13:02:54.013Z,4.63
2022-08-28T13:05:41.043Z,2.72
2022-08-28T13:08:11.179Z,4.88
2022-08-28T13:10:39.818Z,3.05
2022-08-28T13:13:11.802Z,3.90
2022-08-28T13:15:42.878Z,3.38
2022-08-28T13:18:10.299Z,3.03
2022-08-28T13:20:38.927Z,4.25
2022-08-28T13:23:06.432Z,4.75
2022-08-28T13:25:37.587Z,4.88
2022-08-28T13:28:12.228Z,5.30
2022-08-28T13:30:39.587Z,3.47
2022-08-28T13:33:24.150Z,3.80
2022-08-28T13:35:53.962Z,3.47
2022-08-28T13:38:22.289Z,3.25
2022-08-28T13:40:59.424Z,3.90
2022-08-28T13:43:28.207Z,4.40
2022-08-28T13:45:55.944Z,4.15
2022-08-28T13:48:24.248Z,4.50
2022-08-28T13:50:57.386Z,2.88
2022-08-28T13:53:25.490Z,3.72
2022-08-28T13:55:52.607Z,5.45
2022-08-28T13:58:19.904Z,5.03
2022-08-28T14:00:48.546Z,2.92
2022-08-28T14:03:34.779Z,4.35
2022-08-28T14:06:11.562Z,5.47
2022-08-28T14:08:39.985Z,5.40
2022-08-28T14:11:07.487Z,3.42
2022-08-28T14:13:34.686Z,4.47
2022-08-28T14:16:04.681Z,2.53
2022-08-28T14:18:31.894Z,4.47
2022-08-28T14:21:01.934Z,3.33
2022-08-28T14:23:29.076Z,2.85
2022-08-28T14:25:56.205Z,3.17
2022-08-28T14:28:24.141Z,3.05
2022-08-28T14:30:51.890Z,2.08
2022-08-28T14:33:20.639Z,5.32
2022-08-28T14:35:49.079Z,4.10
2022-08-28T14:38:16.404Z,4.13
2022-08-28T14:40:44.193Z,3.67
2022-08-28T14:43:12.563Z,4.45
2022-08-28T14:45:50.091Z,3.63
2022-08-28T14:48:18.688Z,4.72
2022-08-28T14:50:47.151Z,3.33
2022-08-28T14:53:15.794Z,3.50
2022-08-28T14:55:50.338Z,4.65
2022-08-28T14:58:19.106Z,3.30
2022-08-28T15:03:13.952Z,5.75
2022-08-28T15:05:41.429Z,3.50
2022-08-28T15:08:09.720Z,3.55
2022-08-28T15:10:40.484Z,3.70
2022-08-28T15:13:10.213Z,16.88
2022-08-28T15:15:39.580Z,12.95
2022-08-28T15:18:07.135Z,15.02
2022-08-28T15:20:52.768Z,13.98
2022-08-28T15:23:19.943Z,8.07
2022-08-28T15:25:47.130Z,5.43
2022-08-28T15:28:15.117Z,9.43
2022-08-28T15:30:42.549Z,5.70
2022-08-28T15:33:09.726Z,8.50
2022-08-28T15:35:37.202Z,15.60
2022-08-28T15:38:04.745Z,6.63
2022-08-28T15:40:50.933Z,4.78
2022-08-28T15:43:18.334Z,4.57
2022-08-28T15:45:45.513Z,3.53
2022-08-28T15:48:13.701Z,7.35
2022-08-28T15:50:41.671Z,4.13
2022-08-28T15:53:10.031Z,4.47
2022-08-28T15:55:37.300Z,6.50
2022-08-28T15:58:05.240Z,4.85
2022-08-28T16:00:41.085Z,6.80
2022-08-28T16:03:08.219Z,3.72
2022-08-28T16:05:40.610Z,4.55
2022-08-28T16:08:08.009Z,4.60
2022-08-28T16:10:35.434Z,4.00
2022-08-28T16:13:04.644Z,3.25
2022-08-28T16:15:32.011Z,2.75
2022-08-28T16:17:59.190Z,3.63
2022-08-28T16:20:26.330Z,4.03
2022-08-28T16:22:53.626Z,4.18
2022-08-28T16:25:20.813Z,3.22
2022-08-28T16:27:48.066Z,2.75
2022-08-28T16:30:15.702Z,3.13
2022-08-28T16:32:46.733Z,3.83
2022-08-28T16:35:14.930Z,3.42
2022-08-28T16:37:42.406Z,2.83
2022-08-28T16:40:10.035Z,7.18
2022-08-28T16:42:37.274Z,3.65
2022-08-28T16:45:05.172Z,3.42
2022-08-28T16:47:33.241Z,4.20
2022-08-28T16:50:01.877Z,3.10
2022-08-28T16:54:56.131Z,2.90
2022-08-28T16:57:23.986Z,4.90
2022-08-28T16:59:52.946Z,3.55
2022-08-28T17:02:24.893Z,3.30
2022-08-28T17:04:54.423Z,3.25
2022-08-28T17:07:21.913Z,4.35
2022-08-28T17:09:49.119Z,4.80
2022-08-28T17:12:16.748Z,3.22
2022-08-28T17:14:44.112Z,3.60
2022-08-28T17:17:11.289Z,4.22
2022-08-28T17:19:38.521Z,3.80
2022-08-28T17:22:27.107Z,3.22
2022-08-28T17:24:54.720Z,3.30
2022-08-28T17:27:22.744Z,4.78
2022-08-28T17:34:45.013Z,4.20
2022-08-28T17:37:12.213Z,4.55
2022-08-28T17:39:39.449Z,2.95
2022-08-28T17:42:06.687Z,2.95
2022-08-28T17:44:35.291Z,4.18
2022-08-28T17:47:02.482Z,2.58
2022-08-28T17:49:29.734Z,3.75
2022-08-28T17:51:57.198Z,3.63
2022-08-28T17:54:24.444Z,3.17
2022-08-28T17:56:53.005Z,2.72
2022-08-28T17:59:20.591Z,3.95
2022-08-28T18:01:48.088Z,4.22
2022-08-28T18:04:21.500Z,3.50
2022-08-28T18:06:53.583Z,3.95
2022-08-28T18:09:21.389Z,2.90
2022-08-28T18:11:48.735Z,3.83
2022-08-28T18:14:15.941Z,3.40
2022-08-28T18:16:43.197Z,4.15
2022-08-28T18:19:11.354Z,3.95
2022-08-28T18:21:39.066Z,3.33
2022-08-28T18:24:06.510Z,3.08
2022-08-28T18:26:33.670Z,3.40
2022-08-28T18:29:00.926Z,3.08
2022-08-28T18:31:30.328Z,3.72
2022-08-28T18:33:57.694Z,4.30
2022-08-28T18:36:24.915Z,4.72
2022-08-28T18:38:52.215Z,4.13
2022-08-28T18:41:20.341Z,4.35
2022-08-28T18:43:48.067Z,3.25
2022-08-28T18:46:15.804Z,3.45
2022-08-28T18:48:43.568Z,3.15
2022-08-28T18:51:12.048Z,3.28
2022-08-28T18:53:42.368Z,3.60
2022-08-28T18:56:12.153Z,3.92
2022-08-28T18:58:40.144Z,3.47
2022-08-28T19:01:08.256Z,3.30
2022-08-28T19:03:35.445Z,4.20
2022-08-28T19:06:02.563Z,4.28
2022-08-28T19:08:29.801Z,2.95
2022-08-28T19:10:57.058Z,3.70
2022-08-28T19:13:24.179Z,2.85
2022-08-28T19:15:52.630Z,5.47
2022-08-28T19:18:20.190Z,2.97
2022-08-28T19:20:47.521Z,3.05
2022-08-28T19:23:17.610Z,2.95
2022-08-28T19:25:45.674Z,3.78
2022-08-28T19:28:13.788Z,4.13
2022-08-28T19:30:41.202Z,3.67
2022-08-28T19:33:08.339Z,4.30
2022-08-28T19:35:35.804Z,4.50
2022-08-28T19:38:03.074Z,4.38
2022-08-28T19:40:31.626Z,4.13
2022-08-28T19:43:00.637Z,4.43
2022-08-28T19:45:28.275Z,4.72
2022-08-28T19:47:55.432Z,4.80
2022-08-28T19:50:22.651Z,4.57
2022-08-28T19:52:49.805Z,4.10
2022-08-28T19:55:23.292Z,4.50
2022-08-28T19:57:50.576Z,5.03
2022-08-28T20:00:18.357Z,4.05
2022-08-28T20:02:46.754Z,6.20
2022-08-28T20:05:14.792Z,3.25
2022-08-28T20:07:42.019Z,4.95
2022-08-28T20:10:09.394Z,4.38
2022-08-28T20:12:37.098Z,5.53
2022-08-28T20:15:04.496Z,4.10
2022-08-28T20:17:31.874Z,3.67
2022-08-28T20:20:02.431Z,3.67
2022-08-28T20:22:32.045Z,3.90
2022-08-28T20:24:59.316Z,4.90
2022-08-28T20:27:26.485Z,3.03
2022-08-28T20:29:53.606Z,3.65
2022-08-28T20:32:20.870Z,3.47
2022-08-28T20:34:48.245Z,4.35
2022-08-28T20:37:16.800Z,3.33
2022-08-28T20:39:44.228Z,4.38
2022-08-28T20:42:11.854Z,3.70
2022-08-28T20:44:39.331Z,3.85
2022-08-28T20:47:06.559Z,3.90
2022-08-28T20:49:39.444Z,4.15
2022-08-28T20:52:06.814Z,4.30
2022-08-28T20:54:39.670Z,4.00
2022-08-28T20:57:08.595Z,4.05
2022-08-28T20:59:40.134Z,4.35
2022-08-28T21:02:12.211Z,3.65
2022-08-28T21:04:40.516Z,4.55
2022-08-28T21:07:07.809Z,6.03
2022-08-28T21:10:04.208Z,4.38
2022-08-28T21:12:22.648Z,5.15
2022-08-28T21:14:52.783Z,4.85
2022-08-28T21:17:29.012Z,4.82
2022-08-28T21:19:57.341Z,3.65
2022-08-28T21:22:24.489Z,3.47
2022-08-28T21:24:51.617Z,5.47
2022-08-28T21:27:18.837Z,3.60
2022-08-28T21:29:46.343Z,5.00
2022-08-28T21:32:13.452Z,4.22
2022-08-28T21:34:40.654Z,3.10
2022-08-28T21:37:07.807Z,3.88
2022-08-28T21:39:35.754Z,3.92
2022-08-28T21:42:03.287Z,3.88
2022-08-28T21:44:30.427Z,3.83
2022-08-28T21:46:59.486Z,5.20
2022-08-28T21:49:26.822Z,3.42
2022-08-28T21:51:54.138Z,3.78
2022-08-28T21:54:23.050Z,3.85
2022-08-28T21:56:56.260Z,4.80
2022-08-28T21:59:30.287Z,2.95
2022-08-28T22:02:01.422Z,3.33
2022-08-28T22:04:28.661Z,4.97
2022-08-28T22:06:55.753Z,4.18
2022-08-28T22:09:22.888Z,3.50
2022-08-28T22:11:50.185Z,3.47
2022-08-28T22:14:17.367Z,3.67
2022-08-28T22:16:44.818Z,3.67
2022-08-28T22:19:12.202Z,3.78
2022-08-28T22:21:59.235Z,3.25
2022-08-28T22:24:26.362Z,4.95
2022-08-28T22:26:57.434Z,3.10
2022-08-28T22:29:25.143Z,3.67
2022-08-28T22:31:52.725Z,3.42
2022-08-28T22:34:20.183Z,4.40
2022-08-28T22:36:47.415Z,4.13
2022-08-28T22:39:14.661Z,2.92
2022-08-28T22:41:42.031Z,3.92
2022-08-28T22:44:09.862Z,4.13
2022-08-28T22:46:37.262Z,4.18
2022-08-28T22:49:05.164Z,3.17
2022-08-28T22:51:33.855Z,3.13
2022-08-28T22:54:01.050Z,3.28
2022-08-28T22:56:28.449Z,4.13
2022-08-28T22:58:55.576Z,3.40
2022-08-28T23:01:24.227Z,3.13
2022-08-28T23:03:51.401Z,3.65
2022-08-28T23:06:18.750Z,4.38
2022-08-28T23:08:45.855Z,3.60
2022-08-28T23:11:13.172Z,3.53
2022-08-28T23:13:41.065Z,4.03
2022-08-28T23:16:08.490Z,3.78
2022-08-28T23:19:04.320Z,3.03
2022-08-28T23:23:51.639Z,4.20
2022-08-28T23:26:19.017Z,3.47
2022-08-28T23:28:46.387Z,2.92
2022-08-28T23:31:13.763Z,3.83
2022-08-28T23:33:41.355Z,2.85
2022-08-28T23:36:09.048Z,4.25
2022-08-28T23:38:43.096Z,3.42
2022-08-28T23:41:10.809Z,3.50
2022-08-28T23:43:38.650Z,3.40
2022-08-28T23:46:06.845Z,4.15
2022-08-28T23:48:35.359Z,3.05
2022-08-28T23:51:02.975Z,3.35
2022-08-28T23:53:30.700Z,4.72
2022-08-28T23:55:59.417Z,3.92
2022-08-28T23:58:31.703Z,3.50
